Time;durP1;ratioP1;P1;durP2;ratioP2;P2;SDS_P1;SDS_P2;PMS_P1;PMS_P2;Temp;Humidity;BMP_temperature;BMP_pressure;BME280_temperature;BME280_humidity;BME280_pressure;Samples;Min_cycle;Max_cycle;Signal;HPM_P1;HPM_P2
2022/01/05 00:01:46;;;;;;;7.75;4.85;;;;;;;;;;4989487;28;20062;-74
2022/01/05 00:04:12;;;;;;;7.18;4.22;;;;;;;;;;4991231;28;20045;-74
2022/01/05 00:06:47;;;;;;;7.97;4.63;;;;;;;;;;4988917;28;20069;-75
2022/01/05 00:09:13;;;;;;;7.20;4.13;;;;;;;;;;4990002;28;20045;-75
2022/01/05 00:11:40;;;;;;;7.18;3.92;;;;;;;;;;4989105;28;20273;-75
2022/01/05 00:14:07;;;;;;;6.40;3.80;;;;;;;;;;4988806;28;20033;-75
2022/01/05 00:16:32;;;;;;;7.03;3.60;;;;;;;;;;4988644;28;20492;-74
2022/01/05 00:18:58;;;;;;;6.60;3.50;;;;;;;;;;4988351;28;20062;-75
2022/01/05 00:21:24;;;;;;;6.72;3.20;;;;;;;;;;4988341;28;20465;-75
2022/01/05 00:23:50;;;;;;;6.35;2.80;;;;;;;;;;4988458;28;20053;-75
2022/01/05 00:26:16;;;;;;;4.63;2.30;;;;;;;;;;4988191;28;20061;-75
2022/01/05 00:28:43;;;;;;;4.93;2.70;;;;;;;;;;4988163;28;20034;-75
2022/01/05 00:31:09;;;;;;;5.28;2.80;;;;;;;;;;4987914;28;20054;-75
2022/01/05 00:33:37;;;;;;;4.90;2.10;;;;;;;;;;4987930;28;20030;-75
2022/01/05 00:36:04;;;;;;;6.47;2.50;;;;;;;;;;4988239;28;20061;-75
2022/01/05 00:38:30;;;;;;;5.70;2.30;;;;;;;;;;4987489;28;20166;-75
2022/01/05 00:40:55;;;;;;;3.22;1.90;;;;;;;;;;4988369;28;20096;-75
2022/01/05 00:43:21;;;;;;;2.85;1.50;;;;;;;;;;4987942;28;20085;-74
2022/01/05 00:45:47;;;;;;;3.40;1.50;;;;;;;;;;5005135;28;20066;-75
2022/01/05 00:48:13;;;;;;;2.35;1.20;;;;;;;;;;5007570;28;20042;-75
2022/01/05 00:50:39;;;;;;;3.15;1.33;;;;;;;;;;5005817;28;20500;-75
2022/01/05 00:53:05;;;;;;;1.25;1.10;;;;;;;;;;5007641;28;20383;-75
2022/01/05 00:55:31;;;;;;;1.45;1.25;;;;;;;;;;5007319;28;20117;-75
2022/01/05 00:57:57;;;;;;;3.42;1.25;;;;;;;;;;5006032;28;20065;-74
2022/01/05 01:00:23;;;;;;;3.28;1.20;;;;;;;;;;5007521;28;20537;-74
2022/01/05 01:02:48;;;;;;;3.45;1.00;;;;;;;;;;5007431;28;20048;-75
2022/01/05 01:05:15;;;;;;;2.10;1.15;;;;;;;;;;5007279;28;20041;-74
2022/01/05 01:07:41;;;;;;;1.20;1.10;;;;;;;;;;5007450;28;20041;-74
2022/01/05 01:10:08;;;;;;;1.20;0.93;;;;;;;;;;5007140;28;20037;-75
2022/01/05 01:12:34;;;;;;;1.60;1.17;;;;;;;;;;5007583;28;20042;-74
2022/01/05 01:15:03;;;;;;;1.20;0.93;;;;;;;;;;5002799;28;20050;-75
2022/01/05 01:17:31;;;;;;;2.97;1.17;;;;;;;;;;4987968;28;20038;-73
2022/01/05 01:19:57;;;;;;;1.85;0.93;;;;;;;;;;4987351;28;20042;-73
2022/01/05 01:22:24;;;;;;;0.80;0.80;;;;;;;;;;4987624;28;20085;-73
2022/01/05 01:24:50;;;;;;;0.80;0.80;;;;;;;;;;4987338;28;20523;-73
2022/01/05 01:27:19;;;;;;;1.58;0.85;;;;;;;;;;4987035;28;20046;-73
2022/01/05 01:29:45;;;;;;;0.57;0.57;;;;;;;;;;4985685;28;20521;-73
2022/01/05 01:32:11;;;;;;;0.82;0.70;;;;;;;;;;4987295;28;20051;-73
2022/01/05 01:34:37;;;;;;;1.00;0.98;;;;;;;;;;4985996;28;20034;-73
2022/01/05 01:37:06;;;;;;;0.65;0.60;;;;;;;;;;4986534;28;20121;-73
2022/01/05 01:39:32;;;;;;;0.75;0.75;;;;;;;;;;4987032;28;20051;-73
2022/01/05 01:41:57;;;;;;;2.25;0.90;;;;;;;;;;4986952;28;20039;-73
2022/01/05 01:44:23;;;;;;;1.77;0.80;;;;;;;;;;4986708;28;20167;-73
2022/01/05 01:46:49;;;;;;;1.67;0.82;;;;;;;;;;4988906;28;20042;-73
2022/01/05 01:49:15;;;;;;;1.88;0.98;;;;;;;;;;5005997;28;20093;-73
2022/01/05 01:51:41;;;;;;;1.00;0.75;;;;;;;;;;4989791;28;20623;-73
2022/01/05 01:54:09;;;;;;;2.03;1.10;;;;;;;;;;4987142;28;20097;-73
2022/01/05 01:56:35;;;;;;;1.88;1.10;;;;;;;;;;4984994;28;20495;-75
2022/01/05 01:59:02;;;;;;;1.42;1.00;;;;;;;;;;4986634;28;20396;-73
2022/01/05 02:01:28;;;;;;;1.80;0.90;;;;;;;;;;4986696;28;20038;-72
2022/01/05 02:03:54;;;;;;;1.98;1.15;;;;;;;;;;4989399;28;20403;-75
2022/01/05 02:06:20;;;;;;;0.80;0.80;;;;;;;;;;4989970;28;20064;-76
2022/01/05 02:08:49;;;;;;;2.40;1.10;;;;;;;;;;4990158;28;20500;-75
2022/01/05 02:11:15;;;;;;;2.70;1.00;;;;;;;;;;4990432;28;20129;-75
2022/01/05 02:13:41;;;;;;;1.98;0.98;;;;;;;;;;4990356;28;20054;-75
2022/01/05 02:16:13;;;;;;;2.45;1.10;;;;;;;;;;4990350;28;20042;-75
2022/01/05 02:21:10;;;;;;;3.17;1.50;;;;;;;;;;4990442;28;20030;-74
2022/01/05 02:23:36;;;;;;;;;;;;;;;;;;4989486;28;20046;-74
2022/01/05 02:26:03;;;;;;;2.90;1.63;;;;;;;;;;4990014;28;20372;-75
2022/01/05 02:28:29;;;;;;;4.75;1.90;;;;;;;;;;4990435;28;20065;-75
2022/01/05 02:30:58;;;;;;;5.60;2.05;;;;;;;;;;4990367;28;20531;-75
2022/01/05 02:33:25;;;;;;;2.63;1.70;;;;;;;;;;4990281;28;20046;-75
2022/01/05 02:35:51;;;;;;;3.88;1.90;;;;;;;;;;4990216;28;20034;-75
2022/01/05 02:38:21;;;;;;;3.42;1.90;;;;;;;;;;4990115;28;20507;-75
2022/01/05 02:40:49;;;;;;;3.23;1.70;;;;;;;;;;4988578;28;20038;-75
2022/01/05 02:48:26;;;;;;;3.58;2.00;;;;;;;;;;5092690;23;20075;-74
2022/01/05 02:50:56;;;;;;;2.63;1.70;;;;;;;;;;4989954;28;20046;-75
2022/01/05 02:53:23;;;;;;;3.88;1.80;;;;;;;;;;4988578;28;20050;-74
2022/01/05 02:55:49;;;;;;;2.28;1.63;;;;;;;;;;4988240;28;20476;-74
2022/01/05 02:58:15;;;;;;;2.10;1.70;;;;;;;;;;4974382;28;20459;-74
2022/01/05 03:00:41;;;;;;;1.60;1.50;;;;;;;;;;4968512;28;20493;-74
2022/01/05 03:03:07;;;;;;;3.83;1.80;;;;;;;;;;4970163;28;20049;-74
2022/01/05 03:05:33;;;;;;;1.65;1.30;;;;;;;;;;4975069;28;20074;-75
2022/01/05 03:07:59;;;;;;;1.92;1.50;;;;;;;;;;4989563;28;20035;-74
2022/01/05 03:10:25;;;;;;;4.38;1.80;;;;;;;;;;4989253;28;20042;-74
2022/01/05 03:12:51;;;;;;;2.92;1.40;;;;;;;;;;4988921;28;20057;-74
2022/01/05 03:15:17;;;;;;;1.77;1.50;;;;;;;;;;4988635;28;20042;-74
2022/01/05 03:17:44;;;;;;;2.30;1.70;;;;;;;;;;4988929;28;20034;-74
2022/01/05 03:20:12;;;;;;;3.08;1.60;;;;;;;;;;4988841;28;20046;-75
2022/01/05 03:22:39;;;;;;;2.28;1.50;;;;;;;;;;4982322;28;20043;-74
2022/01/05 03:25:06;;;;;;;5.63;1.63;;;;;;;;;;4967528;28;20035;-74
2022/01/05 03:27:33;;;;;;;2.85;1.25;;;;;;;;;;4968997;28;20039;-74
2022/01/05 03:30:00;;;;;;;1.45;1.35;;;;;;;;;;4969691;28;20566;-74
2022/01/05 03:32:32;;;;;;;3.05;1.20;;;;;;;;;;4968777;28;20039;-74
2022/01/05 03:34:58;;;;;;;1.40;1.20;;;;;;;;;;4969328;28;20504;-75
2022/01/05 03:37:24;;;;;;;2.22;1.02;;;;;;;;;;4969353;28;20045;-74
2022/01/05 03:39:49;;;;;;;1.88;1.17;;;;;;;;;;4974693;28;20065;-74
2022/01/05 03:42:15;;;;;;;1.85;1.20;;;;;;;;;;4988098;28;20037;-75
2022/01/05 03:44:41;;;;;;;2.35;1.00;;;;;;;;;;4988218;28;20077;-75
2022/01/05 03:47:07;;;;;;;3.33;1.30;;;;;;;;;;4987524;28;20047;-75
2022/01/05 03:49:33;;;;;;;1.95;1.40;;;;;;;;;;4968116;28;20038;-75
2022/01/05 03:52:00;;;;;;;3.90;1.30;;;;;;;;;;4968826;28;20176;-75
2022/01/05 03:54:26;;;;;;;1.98;1.30;;;;;;;;;;4968789;28;20047;-75
2022/01/05 03:56:52;;;;;;;1.33;1.20;;;;;;;;;;4968715;28;20052;-75
2022/01/05 03:59:18;;;;;;;1.52;1.15;;;;;;;;;;4969027;28;20706;-75
2022/01/05 04:01:44;;;;;;;1.77;1.27;;;;;;;;;;4968956;28;20074;-73
2022/01/05 04:04:09;;;;;;;3.83;1.40;;;;;;;;;;4969020;28;20042;-75
2022/01/05 04:06:35;;;;;;;1.92;1.42;;;;;;;;;;4967567;28;20078;-76
2022/01/05 04:09:01;;;;;;;3.42;1.58;;;;;;;;;;4968902;28;20649;-73
2022/01/05 04:11:27;;;;;;;3.45;1.40;;;;;;;;;;4968639;28;20221;-76
2022/01/05 04:13:53;;;;;;;1.90;1.20;;;;;;;;;;4968768;28;20134;-75
2022/01/05 04:16:19;;;;;;;5.65;1.48;;;;;;;;;;4968944;28;20145;-75
2022/01/05 04:18:45;;;;;;;4.72;1.65;;;;;;;;;;4968525;28;20062;-73
2022/01/05 04:21:11;;;;;;;4.18;1.73;;;;;;;;;;4968345;28;20120;-75
2022/01/05 04:23:37;;;;;;;6.22;1.60;;;;;;;;;;4967295;28;20043;-75
2022/01/05 04:26:02;;;;;;;3.38;1.60;;;;;;;;;;4967938;28;20133;-75
2022/01/05 04:28:28;;;;;;;2.83;1.60;;;;;;;;;;4968592;28;20030;-75
2022/01/05 04:30:54;;;;;;;2.88;1.52;;;;;;;;;;4967198;28;20070;-75
2022/01/05 04:33:20;;;;;;;4.80;1.90;;;;;;;;;;4968813;28;20078;-74
2022/01/05 04:35:46;;;;;;;4.78;1.65;;;;;;;;;;4967422;28;20073;-76
2022/01/05 04:38:12;;;;;;;6.25;2.15;;;;;;;;;;4968596;28;20042;-76
2022/01/05 04:40:38;;;;;;;6.38;1.90;;;;;;;;;;4964346;28;20408;-76
2022/01/05 04:43:04;;;;;;;9.65;2.20;;;;;;;;;;4947910;28;20070;-75
2022/01/05 04:45:29;;;;;;;9.93;2.50;;;;;;;;;;4949037;28;20043;-76
2022/01/05 04:47:55;;;;;;;8.75;2.65;;;;;;;;;;4948831;28;21056;-76
2022/01/05 04:50:21;;;;;;;9.60;2.90;;;;;;;;;;4949209;28;20107;-75
2022/01/05 04:52:47;;;;;;;9.57;2.50;;;;;;;;;;4948701;28;20046;-76
2022/01/05 04:55:13;;;;;;;10.07;2.85;;;;;;;;;;4948873;28;20075;-76
2022/01/05 04:57:39;;;;;;;5.97;2.40;;;;;;;;;;4960444;28;20415;-76
2022/01/05 05:00:11;;;;;;;6.80;2.50;;;;;;;;;;4967239;28;20070;-76
2022/01/05 05:02:39;;;;;;;6.20;2.45;;;;;;;;;;4967752;28;20043;-76
2022/01/05 05:05:06;;;;;;;6.47;2.38;;;;;;;;;;4967085;28;20508;-76
2022/01/05 05:07:31;;;;;;;4.45;1.92;;;;;;;;;;4967885;28;20069;-76
2022/01/05 05:10:00;;;;;;;8.15;1.77;;;;;;;;;;4968911;28;20540;-75
2022/01/05 05:12:26;;;;;;;9.00;1.67;;;;;;;;;;4969156;28;20046;-76
2022/01/05 05:14:52;;;;;;;5.30;1.83;;;;;;;;;;4968433;28;20267;-76
2022/01/05 05:17:18;;;;;;;10.82;1.92;;;;;;;;;;4969445;28;20051;-75
2022/01/05 05:19:43;;;;;;;5.45;2.00;;;;;;;;;;4968607;28;20035;-75
2022/01/05 05:22:09;;;;;;;5.88;1.92;;;;;;;;;;4921239;28;20101;-75
2022/01/05 05:24:35;;;;;;;8.75;2.70;;;;;;;;;;4958661;28;20125;-75
2022/01/05 05:27:01;;;;;;;4.93;1.50;;;;;;;;;;4955416;28;20071;-75
2022/01/05 05:29:27;;;;;;;8.85;1.85;;;;;;;;;;4961828;28;20428;-75
2022/01/05 05:31:53;;;;;;;4.10;1.50;;;;;;;;;;4967954;28;20043;-75
2022/01/05 05:34:19;;;;;;;3.30;1.40;;;;;;;;;;4966538;28;20445;-75
2022/01/05 05:36:44;;;;;;;6.18;1.70;;;;;;;;;;4967018;28;20078;-75
2022/01/05 05:39:10;;;;;;;5.53;1.70;;;;;;;;;;4962712;28;20110;-76
2022/01/05 05:41:37;;;;;;;7.75;1.88;;;;;;;;;;4950858;28;20093;-75
2022/01/05 05:44:03;;;;;;;4.72;1.60;;;;;;;;;;4951112;28;20050;-76
2022/01/05 05:46:32;;;;;;;6.90;1.77;;;;;;;;;;4950999;29;20031;-75
2022/01/05 05:48:58;;;;;;;5.78;1.98;;;;;;;;;;4961748;28;20497;-75
2022/01/05 05:51:24;;;;;;;10.82;1.90;;;;;;;;;;4971391;28;20134;-75
2022/01/05 05:53:49;;;;;;;4.78;1.45;;;;;;;;;;4967064;28;20438;-75
2022/01/05 05:56:15;;;;;;;6.97;1.80;;;;;;;;;;4951407;28;20133;-76
2022/01/05 05:58:41;;;;;;;4.63;1.70;;;;;;;;;;4951631;28;20133;-75
2022/01/05 06:01:07;;;;;;;6.00;1.70;;;;;;;;;;4956676;28;20133;-77
2022/01/05 06:03:33;;;;;;;5.45;1.52;;;;;;;;;;4972033;28;20042;-76
2022/01/05 06:05:59;;;;;;;5.97;1.80;;;;;;;;;;4964392;28;20039;-76
2022/01/05 06:08:25;;;;;;;7.43;2.03;;;;;;;;;;4954660;28;20053;-76
2022/01/05 06:10:51;;;;;;;6.47;1.90;;;;;;;;;;4953122;28;20102;-77
2022/01/05 06:13:16;;;;;;;7.60;1.85;;;;;;;;;;4950525;28;20129;-77
2022/01/05 06:15:42;;;;;;;18.92;8.52;;;;;;;;;;4952485;28;20501;-77
2022/01/05 06:18:11;;;;;;;6.55;2.10;;;;;;;;;;4953317;28;20043;-77
2022/01/05 06:20:37;;;;;;;5.28;1.70;;;;;;;;;;4951606;28;21311;-77
2022/01/05 06:23:03;;;;;;;4.40;1.65;;;;;;;;;;4951525;28;20139;-77
2022/01/05 06:25:29;;;;;;;11.32;2.10;;;;;;;;;;4954863;28;20043;-77
2022/01/05 06:27:55;;;;;;;4.13;1.63;;;;;;;;;;4952880;29;20043;-77
2022/01/05 06:30:21;;;;;;;4.18;2.00;;;;;;;;;;4952844;29;20039;-77
2022/01/05 06:32:47;;;;;;;5.65;1.85;;;;;;;;;;4953955;29;20042;-77
2022/01/05 06:35:14;;;;;;;6.65;1.80;;;;;;;;;;4950524;28;20062;-77
2022/01/05 06:37:40;;;;;;;4.57;1.90;;;;;;;;;;4951163;29;20050;-77
2022/01/05 06:40:07;;;;;;;5.57;1.58;;;;;;;;;;4954094;28;20051;-77
2022/01/05 06:42:33;;;;;;;7.10;1.90;;;;;;;;;;4954308;28;20505;-77
2022/01/05 06:44:59;;;;;;;6.68;1.90;;;;;;;;;;4954071;28;20289;-77
2022/01/05 06:47:25;;;;;;;4.68;1.70;;;;;;;;;;4953694;28;20546;-77
2022/01/05 06:49:51;;;;;;;5.50;1.70;;;;;;;;;;4952926;28;20164;-77
2022/01/05 06:52:17;;;;;;;6.68;2.17;;;;;;;;;;4954049;29;20031;-77
2022/01/05 06:54:43;;;;;;;6.97;2.10;;;;;;;;;;4953547;28;20078;-77
2022/01/05 06:57:10;;;;;;;9.25;1.77;;;;;;;;;;4954272;28;20523;-77
2022/01/05 06:59:36;;;;;;;7.13;2.15;;;;;;;;;;4954422;28;20054;-77
2022/01/05 07:02:03;;;;;;;4.45;1.70;;;;;;;;;;4948994;28;20536;-77
2022/01/05 07:04:29;;;;;;;6.78;1.95;;;;;;;;;;4953944;28;20039;-76
2022/01/05 07:06:55;;;;;;;7.05;1.90;;;;;;;;;;4953747;28;20492;-77
2022/01/05 07:09:21;;;;;;;7.45;2.30;;;;;;;;;;4953114;28;20076;-77
2022/01/05 07:11:47;;;;;;;6.35;2.20;;;;;;;;;;4953931;28;20055;-77
2022/01/05 07:14:13;;;;;;;31.60;11.60;;;;;;;;;;4953614;28;20114;-77
2022/01/05 07:16:39;;;;;;;6.70;2.20;;;;;;;;;;4953437;28;20078;-76
2022/01/05 07:19:07;;;;;;;5.97;1.83;;;;;;;;;;4953663;28;20501;-76
2022/01/05 07:21:35;;;;;;;8.05;2.20;;;;;;;;;;4953800;28;20050;-76
2022/01/05 07:24:01;;;;;;;6.22;2.10;;;;;;;;;;4951641;28;20050;-77
2022/01/05 07:26:28;;;;;;;7.45;1.90;;;;;;;;;;4953156;29;20023;-77
2022/01/05 07:29:02;;;;;;;7.28;1.90;;;;;;;;;;4953242;28;20054;-77
2022/01/05 07:31:31;;;;;;;7.90;2.15;;;;;;;;;;4953132;28;20058;-77
2022/01/05 07:33:57;;;;;;;4.65;1.67;;;;;;;;;;4953671;28;20031;-77
2022/01/05 07:36:22;;;;;;;6.22;1.92;;;;;;;;;;4953432;28;20540;-77
2022/01/05 07:38:48;;;;;;;8.20;2.72;;;;;;;;;;4952077;29;20073;-77
2022/01/05 07:41:17;;;;;;;6.07;2.13;;;;;;;;;;4953562;28;20047;-77
2022/01/05 07:43:43;;;;;;;5.70;1.80;;;;;;;;;;4953274;28;20039;-78
2022/01/05 07:46:09;;;;;;;6.75;2.08;;;;;;;;;;4952899;28;20082;-77
2022/01/05 07:48:34;;;;;;;5.32;2.10;;;;;;;;;;4951059;28;20042;-77
2022/01/05 07:51:00;;;;;;;5.60;2.17;;;;;;;;;;4936914;28;20174;-73
2022/01/05 07:53:26;;;;;;;7.10;1.80;;;;;;;;;;4952045;28;20063;-77
2022/01/05 07:55:52;;;;;;;9.32;1.85;;;;;;;;;;4951743;29;20334;-75
2022/01/05 07:58:20;;;;;;;8.40;2.03;;;;;;;;;;4953409;29;20023;-77
2022/01/05 08:00:46;;;;;;;5.32;2.05;;;;;;;;;;4951641;28;20058;-76
2022/01/05 08:03:11;;;;;;;11.75;2.33;;;;;;;;;;4937734;28;20039;-75
2022/01/05 08:05:38;;;;;;;9.25;1.98;;;;;;;;;;4948803;28;20075;-76
2022/01/05 08:08:03;;;;;;;8.45;2.10;;;;;;;;;;4942364;29;20413;-75
2022/01/05 08:10:29;;;;;;;6.43;1.92;;;;;;;;;;4941818;29;20035;-76
2022/01/05 08:12:55;;;;;;;8.43;2.03;;;;;;;;;;4935219;29;20095;-76
2022/01/05 08:15:21;;;;;;;7.22;2.20;;;;;;;;;;4945017;29;20074;-77
2022/01/05 08:17:47;;;;;;;8.15;2.67;;;;;;;;;;4953529;28;20481;-76
2022/01/05 08:20:13;;;;;;;6.00;2.40;;;;;;;;;;4952907;28;20138;-76
2022/01/05 08:22:44;;;;;;;7.75;2.25;;;;;;;;;;4953483;28;20405;-76
2022/01/05 08:25:15;;;;;;;9.15;2.60;;;;;;;;;;4953435;28;20043;-75
2022/01/05 08:27:46;;;;;;;;;;;;;;;;;;4953510;28;20039;-76
2022/01/05 08:30:20;;;;;;;9.52;2.50;;;;;;;;;;4953664;28;19937;-76
2022/01/05 08:32:48;;;;;;;6.75;1.90;;;;;;;;;;4953449;28;20047;-76
2022/01/05 08:35:15;;;;;;;7.10;2.10;;;;;;;;;;4954117;28;20027;-75
2022/01/05 08:37:46;;;;;;;8.70;1.88;;;;;;;;;;4952922;28;20565;-76
2022/01/05 08:40:14;;;;;;;9.52;1.95;;;;;;;;;;4953230;28;20425;-77
2022/01/05 08:42:40;;;;;;;7.68;2.17;;;;;;;;;;4953004;28;20042;-75
2022/01/05 08:45:07;;;;;;;10.18;2.00;;;;;;;;;;4953457;28;20047;-75
2022/01/05 08:47:33;;;;;;;8.43;2.33;;;;;;;;;;4952901;28;20039;-75
2022/01/05 08:50:00;;;;;;;11.70;2.50;;;;;;;;;;4962188;28;20044;-77
2022/01/05 08:52:25;;;;;;;6.90;1.88;;;;;;;;;;4960143;28;20378;-76
2022/01/05 08:54:51;;;;;;;7.63;2.20;;;;;;;;;;4962729;28;20041;-76
2022/01/05 08:57:18;;;;;;;8.93;2.35;;;;;;;;;;4960660;28;20053;-75
2022/01/05 08:59:44;;;;;;;9.95;2.08;;;;;;;;;;4953067;28;20035;-75
2022/01/05 09:02:15;;;;;;;5.85;2.00;;;;;;;;;;4953225;28;20050;-75
2022/01/05 09:04:42;;;;;;;9.10;2.30;;;;;;;;;;4965115;28;20420;-75
2022/01/05 09:07:09;;;;;;;10.63;2.13;;;;;;;;;;4971747;28;21627;-76
2022/01/05 09:09:34;;;;;;;9.55;2.28;;;;;;;;;;4972692;28;20047;-75
2022/01/05 09:12:00;;;;;;;7.38;2.22;;;;;;;;;;4974366;28;20039;-76
2022/01/05 09:14:26;;;;;;;7.70;2.08;;;;;;;;;;4976267;28;20489;-75
2022/01/05 09:16:52;;;;;;;5.30;2.03;;;;;;;;;;4975964;28;20105;-76
2022/01/05 09:19:18;;;;;;;11.80;2.28;;;;;;;;;;4976479;28;20086;-75
2022/01/05 09:21:48;;;;;;;9.43;2.20;;;;;;;;;;4961062;28;20042;-76
2022/01/05 09:24:17;;;;;;;10.23;2.73;;;;;;;;;;4965566;28;20043;-75
2022/01/05 09:26:44;;;;;;;8.70;2.15;;;;;;;;;;4956689;28;20471;-76
2022/01/05 09:29:10;;;;;;;7.10;2.05;;;;;;;;;;4955402;29;20043;-76
2022/01/05 09:31:36;;;;;;;10.43;2.85;;;;;;;;;;4955300;29;20039;-76
2022/01/05 09:34:02;;;;;;;11.90;2.40;;;;;;;;;;4956330;28;20043;-76
2022/01/05 09:36:40;;;;;;;6.75;2.47;;;;;;;;;;4956401;28;20046;-75
2022/01/05 09:41:56;;;;;;;8.18;2.33;;;;;;;;;;4958964;28;20057;-76
2022/01/05 09:44:33;;;;;;;8.48;2.20;;;;;;;;;;4954968;28;20490;-77
2022/01/05 09:47:18;;;;;;;8.77;2.50;;;;;;;;;;4956756;28;20035;-76
2022/01/05 09:49:57;;;;;;;10.15;2.30;;;;;;;;;;4957205;28;20054;-76
2022/01/05 09:52:24;;;;;;;7.90;2.22;;;;;;;;;;4958015;28;20066;-75
2022/01/05 09:54:50;;;;;;;9.48;2.35;;;;;;;;;;4955562;28;20067;-75
2022/01/05 09:57:19;;;;;;;10.13;2.20;;;;;;;;;;4959374;28;20050;-77
2022/01/05 09:59:46;;;;;;;8.25;2.28;;;;;;;;;;4996739;28;20033;-78
2022/01/05 10:02:17;;;;;;;11.57;2.67;;;;;;;;;;4982094;28;20051;-76
2022/01/05 10:04:45;;;;;;;8.25;2.10;;;;;;;;;;4998983;28;20031;-75
2022/01/05 10:07:11;;;;;;;14.80;5.78;;;;;;;;;;4996418;28;20022;-78
2022/01/05 10:09:39;;;;;;;12.23;2.95;;;;;;;;;;4993854;28;20031;-76
2022/01/05 10:12:06;;;;;;;10.05;2.50;;;;;;;;;;4998913;28;20062;-76
2022/01/05 10:14:32;;;;;;;13.45;2.67;;;;;;;;;;4998290;28;20051;-74
2022/01/05 10:17:07;;;;;;;6.50;2.10;;;;;;;;;;4996885;28;20127;-76
2022/01/05 10:19:34;;;;;;;7.75;2.10;;;;;;;;;;4985835;28;20061;-75
2022/01/05 10:22:01;;;;;;;12.13;3.17;;;;;;;;;;4973053;28;20059;-74
2022/01/05 10:24:43;;;;;;;5.63;1.92;;;;;;;;;;4961590;28;20057;-75
2022/01/05 10:27:20;;;;;;;13.30;2.50;;;;;;;;;;4978691;28;20051;-76
2022/01/05 10:30:06;;;;;;;11.80;2.58;;;;;;;;;;4976577;28;20035;-77
2022/01/05 10:32:34;;;;;;;11.63;2.22;;;;;;;;;;4962887;29;20031;-77
2022/01/05 10:35:05;;;;;;;10.75;2.20;;;;;;;;;;4951238;29;20032;-77
2022/01/05 10:37:32;;;;;;;10.35;1.95;;;;;;;;;;4961840;28;20035;-76
2022/01/05 10:40:06;;;;;;;6.97;2.20;;;;;;;;;;4958342;28;20050;-75
2022/01/05 10:42:32;;;;;;;7.90;1.65;;;;;;;;;;4972850;23;20055;-75
2022/01/05 10:44:59;;;;;;;5.65;1.85;;;;;;;;;;4975579;28;20050;-78
2022/01/05 10:47:28;;;;;;;11.40;1.90;;;;;;;;;;4975620;28;20031;-77
2022/01/05 10:49:54;;;;;;;7.53;1.83;;;;;;;;;;4975810;28;20034;-76
2022/01/05 10:52:26;;;;;;;8.90;1.95;;;;;;;;;;4959261;28;20043;-74
2022/01/05 10:54:54;;;;;;;9.52;2.40;;;;;;;;;;4961090;28;20031;-75
2022/01/05 10:57:22;;;;;;;11.07;2.08;;;;;;;;;;4966616;28;20480;-76
2022/01/05 10:59:50;;;;;;;8.57;2.10;;;;;;;;;;4954651;28;20039;-76
2022/01/05 11:02:30;;;;;;;6.22;1.70;;;;;;;;;;4971580;28;20046;-75
2022/01/05 11:05:08;;;;;;;5.60;1.83;;;;;;;;;;4974430;28;20046;-75
2022/01/05 11:07:39;;;;;;;15.30;5.85;;;;;;;;;;4975347;28;20047;-75
2022/01/05 11:10:10;;;;;;;10.00;4.57;;;;;;;;;;4971115;28;20043;-76
2022/01/05 11:12:43;;;;;;;7.18;1.90;;;;;;;;;;4960129;28;20043;-76
2022/01/05 11:15:31;;;;;;;6.78;1.85;;;;;;;;;;4968499;28;20045;-77
2022/01/05 11:18:18;;;;;;;12.05;2.25;;;;;;;;;;4972643;28;20573;-77
2022/01/05 11:20:55;;;;;;;9.40;2.40;;;;;;;;;;4969913;28;20049;-74
2022/01/05 11:23:23;;;;;;;6.22;1.92;;;;;;;;;;4971677;28;20046;-74
2022/01/05 11:25:51;;;;;;;8.18;2.28;;;;;;;;;;4974157;28;20039;-74
2022/01/05 11:28:19;;;;;;;10.90;2.33;;;;;;;;;;4972017;28;20400;-75
2022/01/05 11:30:46;;;;;;;7.47;2.20;;;;;;;;;;4972456;28;20432;-75
2022/01/05 11:33:13;;;;;;;4.90;1.90;;;;;;;;;;4973157;28;20038;-75
2022/01/05 11:35:39;;;;;;;10.88;2.22;;;;;;;;;;4972851;28;20047;-75
2022/01/05 11:38:06;;;;;;;11.18;1.90;;;;;;;;;;4971921;28;20064;-75
2022/01/05 11:40:33;;;;;;;9.25;2.50;;;;;;;;;;4971867;28;20376;-75
2022/01/05 11:43:08;;;;;;;8.50;2.40;;;;;;;;;;4971616;28;20039;-75
2022/01/05 11:45:45;;;;;;;9.05;2.00;;;;;;;;;;4972155;28;20058;-76
2022/01/05 11:48:24;;;;;;;10.45;2.33;;;;;;;;;;4971093;28;20019;-75
2022/01/05 11:51:00;;;;;;;10.35;1.80;;;;;;;;;;4970689;28;20031;-75
2022/01/05 11:53:43;;;;;;;6.43;2.00;;;;;;;;;;4971870;28;20026;-75
2022/01/05 11:56:13;;;;;;;9.90;2.20;;;;;;;;;;4972394;28;20046;-75
2022/01/05 11:58:59;;;;;;;10.35;2.20;;;;;;;;;;4972122;28;20035;-75
2022/01/05 12:02:00;;;;;;;8.02;1.90;;;;;;;;;;4972049;28;20058;-75
2022/01/05 12:04:26;;;;;;;7.68;2.13;;;;;;;;;;4972896;28;20079;-75
2022/01/05 12:06:55;;;;;;;7.72;2.20;;;;;;;;;;4973116;28;20034;-75
2022/01/05 12:09:23;;;;;;;5.32;1.73;;;;;;;;;;4973294;28;20050;-75
2022/01/05 12:11:50;;;;;;;9.23;1.90;;;;;;;;;;4972894;28;20042;-75
2022/01/05 12:14:22;;;;;;;8.77;2.47;;;;;;;;;;4971635;28;20043;-75
2022/01/05 12:17:03;;;;;;;9.05;1.95;;;;;;;;;;4972527;28;20035;-75
2022/01/05 12:19:48;;;;;;;5.05;1.63;;;;;;;;;;4972808;28;20050;-75
2022/01/05 12:22:17;;;;;;;7.50;2.22;;;;;;;;;;4972550;28;20039;-74
2022/01/05 12:25:00;;;;;;;10.10;2.17;;;;;;;;;;4972495;28;20049;-74
2022/01/05 12:27:37;;;;;;;6.60;1.90;;;;;;;;;;4970056;28;20050;-75
2022/01/05 12:30:09;;;;;;;7.97;1.73;;;;;;;;;;4972049;28;20058;-75
2022/01/05 12:32:36;;;;;;;7.57;1.90;;;;;;;;;;4962220;28;20030;-75
2022/01/05 12:35:05;;;;;;;10.00;2.15;;;;;;;;;;4972484;28;20038;-75
2022/01/05 12:37:52;;;;;;;10.20;2.75;;;;;;;;;;4972353;28;20042;-75
2022/01/05 12:40:22;;;;;;;6.03;2.08;;;;;;;;;;4972561;28;20473;-75
2022/01/05 12:42:49;;;;;;;7.05;2.00;;;;;;;;;;4972265;28;20350;-75
2022/01/05 12:45:53;;;;;;;5.40;1.90;;;;;;;;;;4971652;28;20043;-74
2022/01/05 12:48:35;;;;;;;8.02;2.08;;;;;;;;;;4972117;28;20042;-75
2022/01/05 12:51:20;;;;;;;6.47;1.80;;;;;;;;;;4966704;28;20397;-74
2022/01/05 12:53:52;;;;;;;7.45;2.08;;;;;;;;;;4970686;28;20050;-74
2022/01/05 12:56:32;;;;;;;8.70;2.63;;;;;;;;;;4986052;28;20034;-75
2022/01/05 12:58:59;;;;;;;5.40;1.40;;;;;;;;;;4980700;28;20023;-75
2022/01/05 13:01:27;;;;;;;14.13;2.80;;;;;;;;;;4954983;28;20489;-74
2022/01/05 13:03:55;;;;;;;9.35;3.00;;;;;;;;;;4967278;28;20035;-74
2022/01/05 13:06:23;;;;;;;9.65;2.38;;;;;;;;;;4959197;28;20035;-75
2022/01/05 13:09:04;;;;;;;14.20;3.83;;;;;;;;;;4952410;29;20378;-74
2022/01/05 13:11:39;;;;;;;11.75;2.70;;;;;;;;;;4964653;28;20123;-74
2022/01/05 13:14:23;;;;;;;8.82;2.45;;;;;;;;;;4971417;28;20038;-73
2022/01/05 13:16:53;;;;;;;6.07;1.98;;;;;;;;;;4971178;28;20050;-74
2022/01/05 13:19:34;;;;;;;9.13;2.30;;;;;;;;;;4968377;28;20162;-74
2022/01/05 13:22:11;;;;;;;9.48;2.10;;;;;;;;;;4970406;28;20508;-73
2022/01/05 13:24:59;;;;;;;7.65;2.10;;;;;;;;;;4970749;28;20050;-73
2022/01/05 13:27:49;;;;;;;4.72;1.70;;;;;;;;;;4956606;28;20524;-73
2022/01/05 13:30:20;;;;;;;7.55;2.00;;;;;;;;;;4967587;28;20047;-75
2022/01/05 13:32:49;;;;;;;9.38;2.38;;;;;;;;;;4968819;28;20497;-76
2022/01/05 13:35:19;;;;;;;6.85;2.30;;;;;;;;;;4966379;28;20380;-75
2022/01/05 13:37:56;;;;;;;12.27;2.30;;;;;;;;;;4955890;28;20042;-76
2022/01/05 13:40:25;;;;;;;9.40;2.72;;;;;;;;;;4962370;28;20037;-76
2022/01/05 13:43:01;;;;;;;6.68;1.70;;;;;;;;;;4962133;28;20501;-75
2022/01/05 13:45:30;;;;;;;9.40;2.20;;;;;;;;;;4962333;28;20030;-75
2022/01/05 13:48:05;;;;;;;11.23;2.20;;;;;;;;;;4968646;28;20044;-75
2022/01/05 13:50:36;;;;;;;15.20;4.60;;;;;;;;;;4968889;28;20420;-76
2022/01/05 13:53:05;;;;;;;8.93;1.95;;;;;;;;;;4966325;28;20047;-76
2022/01/05 13:55:40;;;;;;;10.48;2.60;;;;;;;;;;4967188;28;20504;-76
2022/01/05 13:58:21;;;;;;;7.40;1.92;;;;;;;;;;4969023;28;20043;-76
2022/01/05 14:01:16;;;;;;;4.95;1.88;;;;;;;;;;4972775;28;20031;-76
2022/01/05 14:03:47;;;;;;;8.07;2.00;;;;;;;;;;4970276;28;20049;-75
2022/01/05 14:06:27;;;;;;;6.43;1.95;;;;;;;;;;4972328;28;20039;-76
2022/01/05 14:08:58;;;;;;;5.03;1.67;;;;;;;;;;4971218;28;20049;-76
2022/01/05 14:11:25;;;;;;;8.38;2.30;;;;;;;;;;4971955;28;20039;-76
2022/01/05 14:13:55;;;;;;;10.77;2.10;;;;;;;;;;4970930;28;20042;-76
2022/01/05 14:16:42;;;;;;;8.60;2.67;;;;;;;;;;4970174;28;20041;-77
2022/01/05 14:19:10;;;;;;;8.52;2.03;;;;;;;;;;4957118;28;20034;-76
2022/01/05 14:21:47;;;;;;;8.20;2.40;;;;;;;;;;4970742;28;20041;-76
2022/01/05 14:24:17;;;;;;;8.80;1.83;;;;;;;;;;4972101;28;20054;-75
2022/01/05 14:26:47;;;;;;;11.85;2.20;;;;;;;;;;4970847;28;20035;-75
2022/01/05 14:29:13;;;;;;;10.32;2.30;;;;;;;;;;4973640;28;20034;-75
2022/01/05 14:31:45;;;;;;;6.93;2.03;;;;;;;;;;4972896;28;20392;-76
2022/01/05 14:34:18;;;;;;;11.40;2.42;;;;;;;;;;4972767;28;20046;-75
2022/01/05 14:36:47;;;;;;;6.57;2.00;;;;;;;;;;4971861;28;20042;-75
2022/01/05 14:39:14;;;;;;;8.13;2.00;;;;;;;;;;4974209;28;20624;-75
2022/01/05 14:41:44;;;;;;;9.68;2.30;;;;;;;;;;4969418;28;20043;-76
2022/01/05 14:44:24;;;;;;;9.95;2.72;;;;;;;;;;4973201;28;20514;-74
2022/01/05 14:46:59;;;;;;;9.88;1.98;;;;;;;;;;4973365;28;20035;-75
2022/01/05 14:49:28;;;;;;;6.60;2.00;;;;;;;;;;4973955;28;20031;-74
2022/01/05 14:51:56;;;;;;;11.90;2.53;;;;;;;;;;4971403;28;20058;-74
2022/01/05 14:54:24;;;;;;;8.57;2.03;;;;;;;;;;4973633;28;20034;-74
2022/01/05 14:56:50;;;;;;;6.03;1.83;;;;;;;;;;4971402;28;20034;-74
2022/01/05 14:59:17;;;;;;;5.00;1.85;;;;;;;;;;4974045;28;20477;-75
2022/01/05 15:01:43;;;;;;;8.85;2.20;;;;;;;;;;4973645;28;20031;-75